sensor_id;sensor_type;location;lat;lon;timestamp;P1;durP1;ratioP1;P2;durP2;ratioP2
34098;SDS011;20374;49.474;10.944;2024-01-10T00:01:44;3.17;;;1.88;;
34098;SDS011;20374;49.474;10.944;2024-01-10T00:04:10;3.20;;;2.90;;
34098;SDS011;20374;49.474;10.944;2024-01-10T00:06:36;2.15;;;1.65;;
34098;SDS011;20374;49.474;10.944;2024-01-10T00:09:01;3.23;;;2.93;;
34098;SDS011;20374;49.474;10.944;2024-01-10T00:11:27;2.45;;;2.05;;
34098;SDS011;20374;49.474;10.944;2024-01-10T00:13:53;4.50;;;2.40;;
34098;SDS011;20374;49.474;10.944;2024-01-10T00:16:25;2.42;;;2.22;;
34098;SDS011;20374;49.474;10.944;2024-01-10T00:18:52;2.17;;;1.98;;
34098;SDS011;20374;49.474;10.944;2024-01-10T00:21:17;6.25;;;2.90;;
34098;SDS011;20374;49.474;10.944;2024-01-10T00:23:43;1.80;;;1.70;;
34098;SDS011;20374;49.474;10.944;2024-01-10T00:26:09;2.20;;;2.00;;
34098;SDS011;20374;49.474;10.944;2024-01-10T00:28:35;2.42;;;2.22;;
34098;SDS011;20374;49.474;10.944;2024-01-10T00:31:01;3.13;;;2.60;;
34098;SDS011;20374;49.474;10.944;2024-01-10T00:33:27;2.63;;;2.38;;
34098;SDS011;20374;49.474;10.944;2024-01-10T00:35:53;1.30;;;1.00;;
34098;SDS011;20374;49.474;10.944;2024-01-10T00:38:18;3.95;;;2.78;;
34098;SDS011;20374;49.474;10.944;2024-01-10T00:40:44;2.70;;;2.45;;
34098;SDS011;20374;49.474;10.944;2024-01-10T00:43:10;5.35;;;2.67;;
34098;SDS011;20374;49.474;10.944;2024-01-10T00:45:36;2.70;;;2.50;;
34098;SDS011;20374;49.474;10.944;2024-01-10T00:48:02;3.08;;;2.47;;
34098;SDS011;20374;49.474;10.944;2024-01-10T00:50:28;2.53;;;2.15;;
34098;SDS011;20374;49.474;10.944;2024-01-10T00:52:54;2.20;;;1.90;;
34098;SDS011;20374;49.474;10.944;2024-01-10T00:55:20;1.88;;;1.63;;
34098;SDS011;20374;49.474;10.944;2024-01-10T00:57:46;3.38;;;2.40;;
34098;SDS011;20374;49.474;10.944;2024-01-10T01:00:12;2.67;;;2.47;;
34098;SDS011;20374;49.474;10.944;2024-01-10T01:02:38;5.60;;;2.17;;
34098;SDS011;20374;49.474;10.944;2024-01-10T01:05:07;1.92;;;1.75;;
34098;SDS011;20374;49.474;10.944;2024-01-10T01:07:33;3.38;;;2.88;;
34098;SDS011;20374;49.474;10.944;2024-01-10T01:09:59;7.03;;;2.88;;
34098;SDS011;20374;49.474;10.944;2024-01-10T01:12:25;1.70;;;1.60;;
34098;SDS011;20374;49.474;10.944;2024-01-10T01:14:51;2.35;;;1.70;;
34098;SDS011;20374;49.474;10.944;2024-01-10T01:17:17;2.60;;;2.40;;
34098;SDS011;20374;49.474;10.944;2024-01-10T01:19:43;2.23;;;2.03;;
34098;SDS011;20374;49.474;10.944;2024-01-10T01:22:08;2.45;;;2.25;;
34098;SDS011;20374;49.474;10.944;2024-01-10T01:24:34;3.60;;;2.15;;
34098;SDS011;20374;49.474;10.944;2024-01-10T01:27:00;2.67;;;2.47;;
34098;SDS011;20374;49.474;10.944;2024-01-10T01:29:27;2.35;;;2.15;;
34098;SDS011;20374;49.474;10.944;2024-01-10T01:31:54;2.72;;;2.45;;
34098;SDS011;20374;49.474;10.944;2024-01-10T01:34:20;4.20;;;1.65;;
34098;SDS011;20374;49.474;10.944;2024-01-10T01:36:46;3.93;;;2.03;;
34098;SDS011;20374;49.474;10.944;2024-01-10T01:39:12;2.50;;;2.30;;
34098;SDS011;20374;49.474;10.944;2024-01-10T01:41:38;1.85;;;1.60;;
34098;SDS011;20374;49.474;10.944;2024-01-10T01:44:05;2.60;;;2.40;;
34098;SDS011;20374;49.474;10.944;2024-01-10T01:46:31;3.70;;;1.60;;
34098;SDS011;20374;49.474;10.944;2024-01-10T01:48:58;3.00;;;2.50;;
34098;SDS011;20374;49.474;10.944;2024-01-10T01:51:24;2.33;;;2.13;;
34098;SDS011;20374;49.474;10.944;2024-01-10T01:53:53;1.67;;;1.58;;
34098;SDS011;20374;49.474;10.944;2024-01-10T01:56:19;2.43;;;2.23;;
34098;SDS011;20374;49.474;10.944;2024-01-10T01:58:45;1.65;;;1.55;;
34098;SDS011;20374;49.474;10.944;2024-01-10T02:01:13;2.50;;;2.30;;
34098;SDS011;20374;49.474;10.944;2024-01-10T02:03:39;3.97;;;2.20;;
34098;SDS011;20374;49.474;10.944;2024-01-10T02:06:05;5.43;;;1.83;;
34098;SDS011;20374;49.474;10.944;2024-01-10T02:08:32;3.28;;;3.08;;
34098;SDS011;20374;49.474;10.944;2024-01-10T02:10:59;1.90;;;1.80;;
34098;SDS011;20374;49.474;10.944;2024-01-10T02:13:28;2.65;;;2.45;;
34098;SDS011;20374;49.474;10.944;2024-01-10T02:15:55;2.10;;;1.80;;
34098;SDS011;20374;49.474;10.944;2024-01-10T02:18:21;1.77;;;1.23;;
34098;SDS011;20374;49.474;10.944;2024-01-10T02:20:47;3.80;;;2.63;;
34098;SDS011;20374;49.474;10.944;2024-01-10T02:23:13;1.75;;;1.65;;
34098;SDS011;20374;49.474;10.944;2024-01-10T02:25:40;2.33;;;2.13;;
34098;SDS011;20374;49.474;10.944;2024-01-10T02:28:06;1.40;;;1.17;;
34098;SDS011;20374;49.474;10.944;2024-01-10T02:30:34;4.13;;;2.55;;
34098;SDS011;20374;49.474;10.944;2024-01-10T02:33:00;4.18;;;2.70;;
34098;SDS011;20374;49.474;10.944;2024-01-10T02:35:26;2.58;;;2.15;;
34098;SDS011;20374;49.474;10.944;2024-01-10T02:37:53;3.13;;;2.83;;
34098;SDS011;20374;49.474;10.944;2024-01-10T02:40:19;1.80;;;1.58;;
34098;SDS011;20374;49.474;10.944;2024-01-10T02:42:46;1.83;;;1.73;;
34098;SDS011;20374;49.474;10.944;2024-01-10T02:45:12;1.67;;;1.55;;
34098;SDS011;20374;49.474;10.944;2024-01-10T02:47:38;2.40;;;2.20;;
34098;SDS011;20374;49.474;10.944;2024-01-10T02:50:05;2.53;;;2.33;;
34098;SDS011;20374;49.474;10.944;2024-01-10T02:52:31;1.67;;;1.58;;
34098;SDS011;20374;49.474;10.944;2024-01-10T02:54:57;2.80;;;2.50;;
34098;SDS011;20374;49.474;10.944;2024-01-10T02:57:23;1.48;;;1.27;;
34098;SDS011;20374;49.474;10.944;2024-01-10T02:59:49;2.67;;;2.47;;
34098;SDS011;20374;49.474;10.944;2024-01-10T03:02:15;4.50;;;2.03;;
34098;SDS011;20374;49.474;10.944;2024-01-10T03:04:41;2.50;;;2.30;;
34098;SDS011;20374;49.474;10.944;2024-01-10T03:07:07;3.70;;;3.30;;
34098;SDS011;20374;49.474;10.944;2024-01-10T03:09:33;1.52;;;1.30;;
34098;SDS011;20374;49.474;10.944;2024-01-10T03:11:59;2.10;;;1.92;;
34098;SDS011;20374;49.474;10.944;2024-01-10T03:14:25;1.77;;;1.67;;
34098;SDS011;20374;49.474;10.944;2024-01-10T03:16:50;6.00;;;2.28;;
34098;SDS011;20374;49.474;10.944;2024-01-10T03:19:16;2.03;;;1.83;;
34098;SDS011;20374;49.474;10.944;2024-01-10T03:21:42;2.60;;;2.40;;
34098;SDS011;20374;49.474;10.944;2024-01-10T03:24:08;3.15;;;2.65;;
34098;SDS011;20374;49.474;10.944;2024-01-10T03:26:34;1.42;;;1.20;;
34098;SDS011;20374;49.474;10.944;2024-01-10T03:29:00;2.10;;;1.90;;
34098;SDS011;20374;49.474;10.944;2024-01-10T03:31:27;4.53;;;3.00;;
34098;SDS011;20374;49.474;10.944;2024-01-10T03:33:55;2.25;;;2.05;;
34098;SDS011;20374;49.474;10.944;2024-01-10T03:36:21;1.98;;;1.85;;
34098;SDS011;20374;49.474;10.944;2024-01-10T03:38:47;2.40;;;2.20;;
34098;SDS011;20374;49.474;10.944;2024-01-10T03:41:14;3.03;;;1.80;;
34098;SDS011;20374;49.474;10.944;2024-01-10T03:43:41;3.08;;;2.80;;
34098;SDS011;20374;49.474;10.944;2024-01-10T03:46:07;2.33;;;2.13;;
34098;SDS011;20374;49.474;10.944;2024-01-10T03:48:34;2.57;;;2.37;;
34098;SDS011;20374;49.474;10.944;2024-01-10T03:51:00;4.22;;;2.10;;
34098;SDS011;20374;49.474;10.944;2024-01-10T03:53:26;2.50;;;2.30;;
34098;SDS011;20374;49.474;10.944;2024-01-10T03:55:52;2.42;;;2.22;;
34098;SDS011;20374;49.474;10.944;2024-01-10T03:58:18;3.07;;;2.80;;
34098;SDS011;20374;49.474;10.944;2024-01-10T04:00:44;1.45;;;1.30;;
34098;SDS011;20374;49.474;10.944;2024-01-10T04:03:09;3.17;;;2.83;;
34098;SDS011;20374;49.474;10.944;2024-01-10T04:05:35;4.43;;;2.03;;
34098;SDS011;20374;49.474;10.944;2024-01-10T04:08:01;2.22;;;2.00;;
34098;SDS011;20374;49.474;10.944;2024-01-10T04:10:29;1.45;;;1.33;;
34098;SDS011;20374;49.474;10.944;2024-01-10T04:12:55;2.27;;;2.10;;
34098;SDS011;20374;49.474;10.944;2024-01-10T04:15:20;9.13;;;1.70;;
34098;SDS011;20374;49.474;10.944;2024-01-10T04:17:46;2.55;;;2.22;;
34098;SDS011;20374;49.474;10.944;2024-01-10T04:20:12;5.07;;;2.55;;
34098;SDS011;20374;49.474;10.944;2024-01-10T04:22:38;2.53;;;2.30;;
34098;SDS011;20374;49.474;10.944;2024-01-10T04:25:05;3.10;;;2.80;;
34098;SDS011;20374;49.474;10.944;2024-01-10T04:27:32;2.38;;;2.17;;
34098;SDS011;20374;49.474;10.944;2024-01-10T04:29:58;1.73;;;1.63;;
34098;SDS011;20374;49.474;10.944;2024-01-10T04:32:24;2.30;;;2.10;;
34098;SDS011;20374;49.474;10.944;2024-01-10T04:34:50;2.25;;;2.05;;
34098;SDS011;20374;49.474;10.944;2024-01-10T04:37:16;5.38;;;3.60;;
34098;SDS011;20374;49.474;10.944;2024-01-10T04:39:43;3.25;;;2.05;;
34098;SDS011;20374;49.474;10.944;2024-01-10T04:42:11;1.93;;;1.77;;
34098;SDS011;20374;49.474;10.944;2024-01-10T04:44:37;2.45;;;2.25;;
34098;SDS011;20374;49.474;10.944;2024-01-10T04:47:04;2.65;;;2.45;;
34098;SDS011;20374;49.474;10.944;2024-01-10T04:49:30;3.77;;;2.27;;
34098;SDS011;20374;49.474;10.944;2024-01-10T04:51:55;2.10;;;1.80;;
34098;SDS011;20374;49.474;10.944;2024-01-10T04:54:21;2.20;;;2.00;;
34098;SDS011;20374;49.474;10.944;2024-01-10T04:56:47;2.92;;;2.10;;
34098;SDS011;20374;49.474;10.944;2024-01-10T04:59:13;1.70;;;1.50;;
34098;SDS011;20374;49.474;10.944;2024-01-10T05:01:39;4.43;;;3.40;;
34098;SDS011;20374;49.474;10.944;2024-01-10T05:04:05;2.70;;;2.50;;
34098;SDS011;20374;49.474;10.944;2024-01-10T05:06:31;2.97;;;2.10;;
34098;SDS011;20374;49.474;10.944;2024-01-10T05:08:57;1.52;;;1.40;;
34098;SDS011;20374;49.474;10.944;2024-01-10T05:11:24;3.08;;;2.45;;
34098;SDS011;20374;49.474;10.944;2024-01-10T05:13:53;1.90;;;1.80;;
34098;SDS011;20374;49.474;10.944;2024-01-10T05:16:19;1.42;;;1.13;;
34098;SDS011;20374;49.474;10.944;2024-01-10T05:18:45;5.68;;;3.30;;
34098;SDS011;20374;49.474;10.944;2024-01-10T05:21:11;7.13;;;2.65;;
34098;SDS011;20374;49.474;10.944;2024-01-10T05:23:37;3.00;;;2.37;;
34098;SDS011;20374;49.474;10.944;2024-01-10T05:26:06;2.38;;;2.17;;
34098;SDS011;20374;49.474;10.944;2024-01-10T05:28:32;3.40;;;3.10;;
34098;SDS011;20374;49.474;10.944;2024-01-10T05:30:58;2.43;;;2.23;;
34098;SDS011;20374;49.474;10.944;2024-01-10T05:33:24;2.60;;;2.03;;
34098;SDS011;20374;49.474;10.944;2024-01-10T05:35:50;3.70;;;3.38;;
34098;SDS011;20374;49.474;10.944;2024-01-10T05:38:16;2.30;;;2.10;;
34098;SDS011;20374;49.474;10.944;2024-01-10T05:40:41;3.60;;;2.47;;
34098;SDS011;20374;49.474;10.944;2024-01-10T05:43:07;5.57;;;3.30;;
34098;SDS011;20374;49.474;10.944;2024-01-10T05:45:35;2.28;;;2.08;;
34098;SDS011;20374;49.474;10.944;2024-01-10T05:48:02;2.83;;;2.63;;
34098;SDS011;20374;49.474;10.944;2024-01-10T05:50:28;7.95;;;2.00;;
34098;SDS011;20374;49.474;10.944;2024-01-10T05:52:54;1.95;;;1.83;;
34098;SDS011;20374;49.474;10.944;2024-01-10T05:55:20;2.95;;;2.72;;
34098;SDS011;20374;49.474;10.944;2024-01-10T05:57:45;2.40;;;2.20;;
34098;SDS011;20374;49.474;10.944;2024-01-10T06:00:12;4.40;;;2.63;;
34098;SDS011;20374;49.474;10.944;2024-01-10T06:02:38;2.40;;;2.20;;
34098;SDS011;20374;49.474;10.944;2024-01-10T06:05:09;3.08;;;2.78;;
34098;SDS011;20374;49.474;10.944;2024-01-10T06:07:36;3.23;;;2.93;;
34098;SDS011;20374;49.474;10.944;2024-01-10T06:10:02;1.60;;;1.45;;
34098;SDS011;20374;49.474;10.944;2024-01-10T06:12:28;2.30;;;2.10;;
34098;SDS011;20374;49.474;10.944;2024-01-10T06:14:54;2.10;;;1.95;;
34098;SDS011;20374;49.474;10.944;2024-01-10T06:17:20;2.30;;;2.10;;
34098;SDS011;20374;49.474;10.944;2024-01-10T06:19:46;2.45;;;2.17;;
34098;SDS011;20374;49.474;10.944;2024-01-10T06:22:12;3.83;;;3.25;;
34098;SDS011;20374;49.474;10.944;2024-01-10T06:24:38;2.28;;;2.08;;
34098;SDS011;20374;49.474;10.944;2024-01-10T06:27:06;2.43;;;2.23;;
34098;SDS011;20374;49.474;10.944;2024-01-10T06:29:32;6.85;;;2.40;;
34098;SDS011;20374;49.474;10.944;2024-01-10T06:31:59;2.10;;;1.90;;
34098;SDS011;20374;49.474;10.944;2024-01-10T06:34:26;2.53;;;2.33;;
34098;SDS011;20374;49.474;10.944;2024-01-10T06:36:52;2.50;;;2.30;;
34098;SDS011;20374;49.474;10.944;2024-01-10T06:39:18;2.97;;;2.77;;
34098;SDS011;20374;49.474;10.944;2024-01-10T06:41:48;2.50;;;2.30;;
34098;SDS011;20374;49.474;10.944;2024-01-10T06:44:14;2.90;;;2.70;;
34098;SDS011;20374;49.474;10.944;2024-01-10T06:46:43;2.95;;;2.17;;
34098;SDS011;20374;49.474;10.944;2024-01-10T06:49:09;3.38;;;3.08;;
34098;SDS011;20374;49.474;10.944;2024-01-10T06:51:36;2.40;;;2.20;;
34098;SDS011;20374;49.474;10.944;2024-01-10T06:54:02;4.65;;;1.88;;
34098;SDS011;20374;49.474;10.944;2024-01-10T06:56:29;7.57;;;3.40;;
34098;SDS011;20374;49.474;10.944;2024-01-10T06:58:56;3.45;;;3.17;;
34098;SDS011;20374;49.474;10.944;2024-01-10T07:01:22;4.13;;;3.20;;
34098;SDS011;20374;49.474;10.944;2024-01-10T07:03:48;3.67;;;3.37;;
34098;SDS011;20374;49.474;10.944;2024-01-10T07:06:14;6.60;;;3.00;;
34098;SDS011;20374;49.474;10.944;2024-01-10T07:08:40;2.65;;;2.42;;
34098;SDS011;20374;49.474;10.944;2024-01-10T07:11:12;2.20;;;2.00;;
34098;SDS011;20374;49.474;10.944;2024-01-10T07:13:38;2.57;;;2.37;;
34098;SDS011;20374;49.474;10.944;2024-01-10T07:16:05;2.90;;;2.08;;
34098;SDS011;20374;49.474;10.944;2024-01-10T07:18:31;2.63;;;2.42;;
34098;SDS011;20374;49.474;10.944;2024-01-10T07:20:57;2.67;;;2.47;;
34098;SDS011;20374;49.474;10.944;2024-01-10T07:23:23;5.23;;;2.87;;
34098;SDS011;20374;49.474;10.944;2024-01-10T07:25:49;1.92;;;1.80;;
34098;SDS011;20374;49.474;10.944;2024-01-10T07:28:15;2.78;;;2.58;;
34098;SDS011;20374;49.474;10.944;2024-01-10T07:30:41;3.92;;;2.20;;
34098;SDS011;20374;49.474;10.944;2024-01-10T07:33:09;2.50;;;2.30;;
34098;SDS011;20374;49.474;10.944;2024-01-10T07:35:36;3.53;;;3.17;;
34098;SDS011;20374;49.474;10.944;2024-01-10T07:38:06;3.10;;;2.03;;
34098;SDS011;20374;49.474;10.944;2024-01-10T07:40:35;2.70;;;2.50;;
34098;SDS011;20374;49.474;10.944;2024-01-10T07:43:01;6.22;;;3.40;;
34098;SDS011;20374;49.474;10.944;2024-01-10T07:45:27;3.20;;;2.23;;
34098;SDS011;20374;49.474;10.944;2024-01-10T07:47:53;3.25;;;2.75;;
34098;SDS011;20374;49.474;10.944;2024-01-10T07:50:20;2.63;;;2.42;;
34098;SDS011;20374;49.474;10.944;2024-01-10T07:52:46;2.65;;;2.45;;
34098;SDS011;20374;49.474;10.944;2024-01-10T07:55:12;2.10;;;1.90;;
34098;SDS011;20374;49.474;10.944;2024-01-10T07:57:38;2.88;;;2.67;;
34098;SDS011;20374;49.474;10.944;2024-01-10T08:00:05;2.53;;;2.33;;
34098;SDS011;20374;49.474;10.944;2024-01-10T08:02:36;3.03;;;2.83;;
34098;SDS011;20374;49.474;10.944;2024-01-10T08:05:02;1.92;;;1.83;;
34098;SDS011;20374;49.474;10.944;2024-01-10T08:07:35;3.33;;;2.60;;
34098;SDS011;20374;49.474;10.944;2024-01-10T08:10:05;3.00;;;2.80;;
34098;SDS011;20374;49.474;10.944;2024-01-10T08:12:31;2.65;;;2.45;;
34098;SDS011;20374;49.474;10.944;2024-01-10T08:14:57;2.30;;;2.10;;
34098;SDS011;20374;49.474;10.944;2024-01-10T08:17:23;3.30;;;3.00;;
34098;SDS011;20374;49.474;10.944;2024-01-10T08:19:49;2.45;;;2.25;;
34098;SDS011;20374;49.474;10.944;2024-01-10T08:22:17;3.92;;;3.25;;
34098;SDS011;20374;49.474;10.944;2024-01-10T08:24:45;3.03;;;2.83;;
34098;SDS011;20374;49.474;10.944;2024-01-10T08:27:11;2.72;;;2.53;;
34098;SDS011;20374;49.474;10.944;2024-01-10T08:29:38;2.40;;;2.20;;
34098;SDS011;20374;49.474;10.944;2024-01-10T08:32:04;2.97;;;2.08;;
34098;SDS011;20374;49.474;10.944;2024-01-10T08:34:30;4.03;;;3.72;;
34098;SDS011;20374;49.474;10.944;2024-01-10T08:36:56;4.30;;;3.67;;
34098;SDS011;20374;49.474;10.944;2024-01-10T08:39:22;3.60;;;3.40;;
34098;SDS011;20374;49.474;10.944;2024-01-10T08:41:49;2.92;;;2.72;;
34098;SDS011;20374;49.474;10.944;2024-01-10T08:44:15;2.95;;;2.75;;
34098;SDS011;20374;49.474;10.944;2024-01-10T08:46:41;3.30;;;3.10;;
34098;SDS011;20374;49.474;10.944;2024-01-10T08:49:07;3.50;;;3.20;;
34098;SDS011;20374;49.474;10.944;2024-01-10T08:51:33;2.65;;;2.42;;
34098;SDS011;20374;49.474;10.944;2024-01-10T08:53:59;4.72;;;3.33;;
34098;SDS011;20374;49.474;10.944;2024-01-10T08:56:25;2.57;;;2.37;;
34098;SDS011;20374;49.474;10.944;2024-01-10T08:58:52;3.83;;;3.17;;
34098;SDS011;20374;49.474;10.944;2024-01-10T09:01:18;3.25;;;2.80;;
34098;SDS011;20374;49.474;10.944;2024-01-10T09:03:44;6.07;;;2.95;;
34098;SDS011;20374;49.474;10.944;2024-01-10T09:06:11;3.28;;;3.05;;
34098;SDS011;20374;49.474;10.944;2024-01-10T09:08:37;3.33;;;3.03;;
34098;SDS011;20374;49.474;10.944;2024-01-10T09:11:04;3.13;;;2.92;;
34098;SDS011;20374;49.474;10.944;2024-01-10T09:13:31;3.28;;;2.97;;
34098;SDS011;20374;49.474;10.944;2024-01-10T09:15:57;10.43;;;4.78;;
34098;SDS011;20374;49.474;10.944;2024-01-10T09:18:23;2.70;;;2.42;;
34098;SDS011;20374;49.474;10.944;2024-01-10T09:20:49;2.40;;;2.17;;
34098;SDS011;20374;49.474;10.944;2024-01-10T09:23:14;3.67;;;3.38;;
34098;SDS011;20374;49.474;10.944;2024-01-10T09:25:40;5.05;;;3.83;;
34098;SDS011;20374;49.474;10.944;2024-01-10T09:28:06;3.40;;;3.03;;
34098;SDS011;20374;49.474;10.944;2024-01-10T09:30:32;2.58;;;2.38;;
34098;SDS011;20374;49.474;10.944;2024-01-10T09:32:59;7.18;;;3.33;;
34098;SDS011;20374;49.474;10.944;2024-01-10T09:35:25;3.85;;;3.45;;
34098;SDS011;20374;49.474;10.944;2024-01-10T09:37:51;7.37;;;6.20;;
34098;SDS011;20374;49.474;10.944;2024-01-10T09:40:19;4.35;;;2.58;;
34098;SDS011;20374;49.474;10.944;2024-01-10T09:42:51;4.43;;;2.78;;
34098;SDS011;20374;49.474;10.944;2024-01-10T09:45:17;5.60;;;3.58;;
34098;SDS011;20374;49.474;10.944;2024-01-10T09:47:45;3.33;;;2.97;;
34098;SDS011;20374;49.474;10.944;2024-01-10T09:50:14;7.93;;;3.27;;
34098;SDS011;20374;49.474;10.944;2024-01-10T09:53:05;3.00;;;2.78;;
34098;SDS011;20374;49.474;10.944;2024-01-10T09:55:36;3.33;;;3.10;;
34098;SDS011;20374;49.474;10.944;2024-01-10T09:58:06;3.88;;;3.53;;
34098;SDS011;20374;49.474;10.944;2024-01-10T10:00:34;4.10;;;3.80;;
34098;SDS011;20374;49.474;10.944;2024-01-10T10:03:01;5.60;;;3.67;;
34098;SDS011;20374;49.474;10.944;2024-01-10T10:05:29;4.22;;;3.92;;
34098;SDS011;20374;49.474;10.944;2024-01-10T10:07:56;3.30;;;3.00;;
34098;SDS011;20374;49.474;10.944;2024-01-10T10:10:23;3.17;;;2.97;;
34098;SDS011;20374;49.474;10.944;2024-01-10T10:12:53;4.55;;;3.50;;
34098;SDS011;20374;49.474;10.944;2024-01-10T10:15:22;3.53;;;3.05;;
34098;SDS011;20374;49.474;10.944;2024-01-10T10:17:51;4.32;;;3.95;;
34098;SDS011;20374;49.474;10.944;2024-01-10T10:20:25;3.60;;;3.22;;
34098;SDS011;20374;49.474;10.944;2024-01-10T10:25:29;3.57;;;3.27;;
34098;SDS011;20374;49.474;10.944;2024-01-10T10:28:00;2.35;;;2.15;;
34098;SDS011;20374;49.474;10.944;2024-01-10T10:30:27;2.83;;;2.05;;
34098;SDS011;20374;49.474;10.944;2024-01-10T10:32:55;3.47;;;3.17;;
34098;SDS011;20374;49.474;10.944;2024-01-10T10:35:21;2.78;;;2.22;;
34098;SDS011;20374;49.474;10.944;2024-01-10T10:37:48;7.27;;;3.93;;
34098;SDS011;20374;49.474;10.944;2024-01-10T10:40:15;2.92;;;2.72;;
34098;SDS011;20374;49.474;10.944;2024-01-10T10:42:51;5.75;;;2.90;;
34098;SDS011;20374;49.474;10.944;2024-01-10T10:45:22;4.78;;;3.33;;
34098;SDS011;20374;49.474;10.944;2024-01-10T10:48:01;3.28;;;3.00;;
34098;SDS011;20374;49.474;10.944;2024-01-10T10:50:28;3.40;;;3.10;;
34098;SDS011;20374;49.474;10.944;2024-01-10T10:52:58;2.38;;;2.17;;
34098;SDS011;20374;49.474;10.944;2024-01-10T10:55:25;3.40;;;3.10;;
34098;SDS011;20374;49.474;10.944;2024-01-10T10:57:52;3.88;;;3.58;;
34098;SDS011;20374;49.474;10.944;2024-01-10T11:00:21;2.97;;;2.78;;
34098;SDS011;20374;49.474;10.944;2024-01-10T11:02:52;3.53;;;2.80;;
34098;SDS011;20374;49.474;10.944;2024-01-10T11:05:20;3.17;;;2.88;;
34098;SDS011;20374;49.474;10.944;2024-01-10T11:07:46;3.50;;;3.20;;
34098;SDS011;20374;49.474;10.944;2024-01-10T11:10:21;3.80;;;3.47;;
34098;SDS011;20374;49.474;10.944;2024-01-10T11:21:24;3.58;;;3.28;;
34098;SDS011;20374;49.474;10.944;2024-01-10T11:24:05;4.50;;;3.05;;
34098;SDS011;20374;49.474;10.944;2024-01-10T11:26:36;5.05;;;2.72;;
34098;SDS011;20374;49.474;10.944;2024-01-10T11:29:04;4.30;;;3.77;;
34098;SDS011;20374;49.474;10.944;2024-01-10T11:31:31;4.28;;;3.67;;
34098;SDS011;20374;49.474;10.944;2024-01-10T11:33:58;3.88;;;3.58;;
34098;SDS011;20374;49.474;10.944;2024-01-10T11:36:25;4.45;;;4.05;;
34098;SDS011;20374;49.474;10.944;2024-01-10T11:44:54;5.25;;;4.75;;
34098;SDS011;20374;49.474;10.944;2024-01-10T11:47:10;6.22;;;4.82;;
34098;SDS011;20374;49.474;10.944;2024-01-10T11:49:38;4.88;;;4.47;;
34098;SDS011;20374;49.474;10.944;2024-01-10T11:52:04;5.03;;;4.43;;
34098;SDS011;20374;49.474;10.944;2024-01-10T11:54:38;5.15;;;4.65;;
34098;SDS011;20374;49.474;10.944;2024-01-10T11:57:27;4.90;;;4.40;;
34098;SDS011;20374;49.474;10.944;2024-01-10T11:59:54;6.50;;;5.90;;
34098;SDS011;20374;49.474;10.944;2024-01-10T12:02:21;4.53;;;3.60;;
34098;SDS011;20374;49.474;10.944;2024-01-10T12:04:50;6.70;;;5.50;;
34098;SDS011;20374;49.474;10.944;2024-01-10T12:07:16;4.57;;;3.92;;
34098;SDS011;20374;49.474;10.944;2024-01-10T12:09:43;4.93;;;4.30;;
34098;SDS011;20374;49.474;10.944;2024-01-10T12:12:10;4.82;;;4.43;;
34098;SDS011;20374;49.474;10.944;2024-01-10T12:14:37;5.32;;;4.82;;
34098;SDS011;20374;49.474;10.944;2024-01-10T12:17:04;4.87;;;4.33;;
34098;SDS011;20374;49.474;10.944;2024-01-10T12:19:31;4.53;;;4.07;;
34098;SDS011;20374;49.474;10.944;2024-01-10T12:21:59;5.32;;;4.63;;
34098;SDS011;20374;49.474;10.944;2024-01-10T12:31:55;5.73;;;5.23;;
34098;SDS011;20374;49.474;10.944;2024-01-10T12:34:42;6.30;;;4.38;;
34098;SDS011;20374;49.474;10.944;2024-01-10T12:37:35;7.88;;;6.35;;
34098;SDS011;20374;49.474;10.944;2024-01-10T12:43:28;6.75;;;6.15;;
34098;SDS011;20374;49.474;10.944;2024-01-10T12:53:20;6.25;;;5.22;;
34098;SDS011;20374;49.474;10.944;2024-01-10T12:55:52;6.47;;;5.85;;
34098;SDS011;20374;49.474;10.944;2024-01-10T13:02:31;7.30;;;4.60;;
34098;SDS011;20374;49.474;10.944;2024-01-10T13:12:06;6.22;;;5.63;;
34098;SDS011;20374;49.474;10.944;2024-01-10T13:18:38;6.83;;;6.23;;
34098;SDS011;20374;49.474;10.944;2024-01-10T13:25:44;6.22;;;5.25;;
34098;SDS011;20374;49.474;10.944;2024-01-10T13:39:42;6.32;;;4.47;;
34098;SDS011;20374;49.474;10.944;2024-01-10T13:42:08;6.60;;;6.00;;
34098;SDS011;20374;49.474;10.944;2024-01-10T13:44:37;5.03;;;4.63;;
34098;SDS011;20374;49.474;10.944;2024-01-10T13:47:04;4.00;;;3.53;;
34098;SDS011;20374;49.474;10.944;2024-01-10T13:49:30;6.07;;;4.47;;
34098;SDS011;20374;49.474;10.944;2024-01-10T13:51:56;4.55;;;4.18;;
34098;SDS011;20374;49.474;10.944;2024-01-10T13:54:22;6.35;;;4.68;;
34098;SDS011;20374;49.474;10.944;2024-01-10T13:56:48;4.95;;;4.30;;
34098;SDS011;20374;49.474;10.944;2024-01-10T13:59:14;4.40;;;3.97;;
34098;SDS011;20374;49.474;10.944;2024-01-10T14:01:39;4.60;;;4.20;;
34098;SDS011;20374;49.474;10.944;2024-01-10T14:04:05;2.83;;;2.63;;
34098;SDS011;20374;49.474;10.944;2024-01-10T14:06:32;4.88;;;4.47;;
34098;SDS011;20374;49.474;10.944;2024-01-10T14:09:01;4.32;;;3.72;;
34098;SDS011;20374;49.474;10.944;2024-01-10T14:11:27;3.80;;;3.50;;
34098;SDS011;20374;49.474;10.944;2024-01-10T14:13:53;3.53;;;3.22;;
34098;SDS011;20374;49.474;10.944;2024-01-10T14:16:19;5.00;;;4.37;;
34098;SDS011;20374;49.474;10.944;2024-01-10T14:18:45;5.88;;;5.20;;
34098;SDS011;20374;49.474;10.944;2024-01-10T14:21:13;2.75;;;2.53;;
34098;SDS011;20374;49.474;10.944;2024-01-10T14:23:39;4.23;;;3.93;;
34098;SDS011;20374;49.474;10.944;2024-01-10T14:26:05;6.20;;;3.65;;
34098;SDS011;20374;49.474;10.944;2024-01-10T14:28:31;3.75;;;3.45;;
34098;SDS011;20374;49.474;10.944;2024-01-10T14:30:58;4.00;;;3.30;;
34098;SDS011;20374;49.474;10.944;2024-01-10T14:33:25;3.30;;;3.10;;
34098;SDS011;20374;49.474;10.944;2024-01-10T14:35:51;4.07;;;3.80;;
34098;SDS011;20374;49.474;10.944;2024-01-10T14:38:17;4.35;;;4.03;;
34098;SDS011;20374;49.474;10.944;2024-01-10T14:40:43;4.38;;;4.07;;
34098;SDS011;20374;49.474;10.944;2024-01-10T14:43:09;3.25;;;2.95;;
34098;SDS011;20374;49.474;10.944;2024-01-10T14:45:35;4.28;;;3.90;;
34098;SDS011;20374;49.474;10.944;2024-01-10T14:48:01;4.13;;;3.83;;
34098;SDS011;20374;49.474;10.944;2024-01-10T14:50:28;4.03;;;3.17;;
34098;SDS011;20374;49.474;10.944;2024-01-10T14:52:54;3.65;;;3.35;;
34098;SDS011;20374;49.474;10.944;2024-01-10T14:55:22;3.70;;;3.40;;
34098;SDS011;20374;49.474;10.944;2024-01-10T14:57:49;5.53;;;3.53;;
34098;SDS011;20374;49.474;10.944;2024-01-10T15:00:15;3.97;;;3.67;;
34098;SDS011;20374;49.474;10.944;2024-01-10T15:02:42;2.78;;;2.58;;
34098;SDS011;20374;49.474;10.944;2024-01-10T15:05:07;4.13;;;3.83;;
34098;SDS011;20374;49.474;10.944;2024-01-10T15:07:36;4.63;;;4.20;;
34098;SDS011;20374;49.474;10.944;2024-01-10T15:10:02;3.63;;;3.33;;
34098;SDS011;20374;49.474;10.944;2024-01-10T15:12:30;3.42;;;3.13;;
34098;SDS011;20374;49.474;10.944;2024-01-10T15:14:57;5.38;;;4.97;;
34098;SDS011;20374;49.474;10.944;2024-01-10T15:17:28;3.63;;;3.33;;
34098;SDS011;20374;49.474;10.944;2024-01-10T15:19:54;4.00;;;3.70;;
34098;SDS011;20374;49.474;10.944;2024-01-10T15:22:20;3.88;;;3.60;;
34098;SDS011;20374;49.474;10.944;2024-01-10T15:24:46;4.25;;;3.95;;
34098;SDS011;20374;49.474;10.944;2024-01-10T15:27:14;4.88;;;3.35;;
34098;SDS011;20374;49.474;10.944;2024-01-10T15:29:39;5.77;;;3.70;;
34098;SDS011;20374;49.474;10.944;2024-01-10T15:32:06;3.53;;;3.22;;
34098;SDS011;20374;49.474;10.944;2024-01-10T15:34:32;4.13;;;3.80;;
34098;SDS011;20374;49.474;10.944;2024-01-10T15:36:58;3.38;;;2.85;;
34098;SDS011;20374;49.474;10.944;2024-01-10T15:39:24;4.63;;;3.63;;